Time;durP1;ratioP1;P1;durP2;ratioP2;P2;SDS_P1;SDS_P2;PMS_P1;PMS_P2;Temp;Humidity;BMP_temperature;BMP_pressure;BME280_temperature;BME280_humidity;BME280_pressure;Samples;Min_cycle;Max_cycle;Signal;HPM_P1;HPM_P2
2022/06/30 00:00:01;;;;;;;5.62;4.05;;;;;;;22.26;63.61;100040.11;1481319;88;21480;-93
2022/06/30 00:02:29;;;;;;;5.50;4.42;;;;;;;22.15;63.68;100034.16;1477543;88;21339;-93
2022/06/30 00:04:56;;;;;;;7.67;3.98;;;;;;;22.00;64.39;100032.73;1479682;88;21272;-93
2022/06/30 00:07:23;;;;;;;12.30;4.45;;;;;;;21.91;64.24;100036.00;1480880;88;21466;-92
2022/06/30 00:09:50;;;;;;;15.50;4.53;;;;;;;21.80;64.67;100034.92;1482274;88;21361;-92
2022/06/30 00:12:18;;;;;;;8.73;5.03;;;;;;;21.71;64.88;100037.13;1478979;88;21318;-92
2022/06/30 00:14:45;;;;;;;4.15;3.47;;;;;;;21.66;65.03;100033.48;1478226;88;22058;-93
2022/06/30 00:17:12;;;;;;;13.85;5.10;;;;;;;21.60;65.19;100034.69;1477439;88;22197;-92
2022/06/30 00:19:40;;;;;;;6.45;4.50;;;;;;;21.52;65.33;100027.45;1476803;88;21533;-94
2022/06/30 00:22:07;;;;;;;11.40;4.40;;;;;;;21.45;65.78;100019.48;1477381;88;21421;-93
2022/06/30 00:24:35;;;;;;;5.50;4.65;;;;;;;21.42;65.84;100019.95;1474602;88;21568;-93
2022/06/30 00:27:02;;;;;;;5.45;4.12;;;;;;;21.40;66.01;100017.47;1473844;88;21524;-93
2022/06/30 00:29:29;;;;;;;10.48;4.45;;;;;;;21.38;66.10;100017.42;1474587;88;21561;-92
2022/06/30 00:31:57;;;;;;;11.08;4.45;;;;;;;21.35;66.08;100017.86;1486588;88;22537;-92
2022/06/30 00:34:24;;;;;;;7.50;4.37;;;;;;;21.32;66.26;100014.25;1490191;88;22352;-92
2022/06/30 00:36:51;;;;;;;8.33;4.15;;;;;;;21.28;66.81;100019.80;1475492;88;21427;-92
2022/06/30 00:39:18;;;;;;;10.78;4.95;;;;;;;21.24;66.79;100018.62;1480396;88;21376;-92
2022/06/30 00:41:47;;;;;;;9.18;4.00;;;;;;;21.21;67.03;100025.28;1473497;88;21266;-92
2022/06/30 00:44:16;;;;;;;8.45;4.20;;;;;;;21.16;67.06;100021.91;1483742;88;21421;-92
2022/06/30 00:46:44;;;;;;;6.97;4.30;;;;;;;21.11;67.28;100024.45;1471801;88;21376;-92
2022/06/30 00:49:11;;;;;;;17.10;4.87;;;;;;;21.07;67.07;100031.34;1480457;88;21498;-92
2022/06/30 00:51:38;;;;;;;11.45;5.40;;;;;;;21.07;66.79;100032.70;1472122;88;21464;-94
2022/06/30 00:54:06;;;;;;;10.40;4.40;;;;;;;21.03;67.63;100028.83;1472050;88;21443;-93
2022/06/30 00:56:35;;;;;;;13.30;4.83;;;;;;;20.96;67.84;100026.20;1495014;88;21369;-93
2022/06/30 00:59:07;;;;;;;5.30;3.90;;;;;;;20.90;68.10;100024.94;1476225;88;21479;-91
2022/06/30 01:01:37;;;;;;;10.58;4.30;;;;;;;20.84;68.29;100021.80;1484561;88;21383;-91
2022/06/30 01:04:06;;;;;;;6.55;4.17;;;;;;;20.77;68.61;100017.02;1456251;88;21309;-91
2022/06/30 01:06:36;;;;;;;6.20;4.87;;;;;;;20.68;68.62;100015.96;1474109;88;22638;-94
2022/06/30 01:09:04;;;;;;;8.88;5.22;;;;;;;20.61;68.79;100015.23;1456138;88;21383;-93
2022/06/30 01:14:18;;;;;;;14.90;4.22;;;;;;;20.54;68.93;100050.75;1481513;88;21347;-95
2022/06/30 01:16:45;;;;;;;5.83;4.30;;;;;;;20.51;69.23;100033.69;1478622;88;21347;-96
2022/06/30 01:19:15;;;;;;;11.70;4.62;;;;;;;20.55;68.96;100059.14;1476366;88;22374;-94
2022/06/30 01:22:03;;;;;;;4.72;4.10;;;;;;;20.56;68.64;100039.27;1456669;88;21398;-92
2022/06/30 01:24:31;;;;;;;6.45;4.42;;;;;;;20.59;69.31;100037.47;1471451;88;21439;-94
2022/06/30 01:26:58;;;;;;;8.83;4.62;;;;;;;20.58;68.83;100031.80;1450181;88;21491;-95
2022/06/30 01:29:25;;;;;;;14.23;4.10;;;;;;;20.51;68.73;100023.79;1479529;88;21509;-91
2022/06/30 01:31:52;;;;;;;10.50;4.60;;;;;;;20.47;68.33;100032.50;1476922;88;21517;-95
2022/06/30 01:34:19;;;;;;;5.07;4.33;;;;;;;20.47;68.50;100025.26;1480482;88;21369;-95
2022/06/30 01:36:46;;;;;;;5.57;4.07;;;;;;;20.47;68.51;100019.06;1480680;88;21281;-95
2022/06/30 01:39:13;;;;;;;6.97;5.13;;;;;;;20.42;68.58;100024.28;1457811;88;21524;-94
2022/06/30 01:41:41;;;;;;;5.60;4.60;;;;;;;20.36;68.62;100021.14;1484532;88;21518;-95
2022/06/30 01:44:08;;;;;;;12.60;4.47;;;;;;;20.35;68.48;100036.45;1474231;88;21457;-92
2022/06/30 01:46:35;;;;;;;8.17;4.30;;;;;;;20.32;68.84;100021.30;1476591;88;21487;-94
2022/06/30 01:49:02;;;;;;;42.33;7.40;;;;;;;20.25;69.06;100016.81;1469784;88;21302;-95
2022/06/30 01:51:29;;;;;;;8.97;4.73;;;;;;;20.15;68.82;100013.78;1475515;88;21384;-93
2022/06/30 01:53:56;;;;;;;10.30;4.70;;;;;;;20.09;68.97;100020.05;1490307;88;21376;-94
2022/06/30 01:56:25;;;;;;;8.10;4.10;;;;;;;20.04;69.33;100026.59;1479857;87;21503;-94
2022/06/30 01:58:52;;;;;;;5.13;4.17;;;;;;;19.96;69.68;100024.98;1480463;88;21432;-93
2022/06/30 02:01:20;;;;;;;5.40;4.13;;;;;;;19.92;69.92;100017.61;1475790;88;21332;-93
2022/06/30 02:03:47;;;;;;;6.53;4.80;;;;;;;19.82;70.25;100020.76;1473941;88;21376;-93
2022/06/30 02:06:14;;;;;;;6.37;4.27;;;;;;;19.74;70.61;100025.08;1481925;88;21420;-94
2022/06/30 02:08:41;;;;;;;7.30;4.37;;;;;;;19.71;70.51;100023.64;1479710;88;21282;-93
2022/06/30 02:11:09;;;;;;;5.00;4.27;;;;;;;19.68;70.60;100021.40;1480427;88;21355;-92
2022/06/30 02:13:36;;;;;;;7.07;4.60;;;;;;;19.65;70.78;100015.59;1475511;88;21369;-93
2022/06/30 02:16:04;;;;;;;6.70;5.07;;;;;;;19.55;70.26;100008.02;1457134;88;21361;-91
2022/06/30 02:18:31;;;;;;;8.53;4.40;;;;;;;19.45;70.31;100017.90;1454333;88;21375;-92
2022/06/30 02:20:58;;;;;;;7.30;4.40;;;;;;;19.39;70.66;100017.39;1472025;87;22182;-90
2022/06/30 02:23:25;;;;;;;6.80;4.63;;;;;;;19.36;70.75;100013.30;1471148;88;21398;-92
2022/06/30 02:25:52;;;;;;;11.40;5.37;;;;;;;19.34;71.07;100016.72;1476208;88;21369;-92
2022/06/30 02:28:20;;;;;;;5.43;4.80;;;;;;;19.33;71.26;100016.91;1477128;88;21605;-93
2022/06/30 02:30:47;;;;;;;8.03;5.17;;;;;;;19.28;71.60;100010.87;1472892;88;21390;-93
2022/06/30 02:33:15;;;;;;;9.47;4.80;;;;;;;19.24;71.81;100012.84;1478344;88;21406;-93
2022/06/30 02:35:42;;;;;;;11.40;5.50;;;;;;;19.19;71.49;100014.84;1478100;88;21303;-93
2022/06/30 02:38:10;;;;;;;6.90;5.00;;;;;;;19.18;71.83;100019.06;1477200;88;21280;-93
2022/06/30 02:40:38;;;;;;;9.87;4.30;;;;;;;19.21;71.40;100016.77;1478006;88;21325;-93
2022/06/30 02:43:05;;;;;;;13.53;5.07;;;;;;;19.25;71.71;100020.69;1472691;88;21287;-93
2022/06/30 02:45:32;;;;;;;5.53;4.93;;;;;;;19.22;72.17;100021.61;1469328;88;21310;-93
2022/06/30 02:48:02;;;;;;;9.93;5.53;;;;;;;19.15;72.14;100013.61;1472766;88;21479;-94
2022/06/30 02:50:29;;;;;;;7.30;4.08;;;;;;;19.14;71.78;100019.50;1478847;88;21331;-94
2022/06/30 02:52:57;;;;;;;9.30;4.50;;;;;;;19.16;72.04;100021.95;1463319;88;21436;-91
2022/06/30 02:55:25;;;;;;;5.07;4.30;;;;;;;19.12;72.61;100020.22;1463418;88;21400;-91
2022/06/30 02:57:52;;;;;;;9.33;5.37;;;;;;;19.13;72.55;100015.67;1477190;88;22397;-92
2022/06/30 03:00:20;;;;;;;8.53;4.90;;;;;;;19.12;72.74;100011.35;1483449;88;21288;-91
2022/06/30 03:02:47;;;;;;;6.87;4.90;;;;;;;19.12;72.29;100011.35;1479590;88;21266;-93
2022/06/30 03:05:14;;;;;;;7.87;4.13;;;;;;;19.21;72.19;100011.93;1485257;88;22499;-94
2022/06/30 03:07:43;;;;;;;11.47;5.63;;;;;;;19.26;72.58;100010.78;1483819;88;21430;-94
2022/06/30 03:10:10;;;;;;;11.63;4.50;;;;;;;19.27;72.46;100015.09;1478448;88;21524;-94
2022/06/30 03:12:38;;;;;;;4.83;3.87;;;;;;;19.27;72.47;100009.20;1476823;88;21383;-94
2022/06/30 03:15:06;;;;;;;11.07;4.93;;;;;;;19.31;72.19;100018.48;1481618;88;21376;-94
2022/06/30 03:17:33;;;;;;;6.80;4.83;;;;;;;19.37;72.20;100025.67;1480065;88;21362;-93
2022/06/30 03:20:01;;;;;;;11.87;5.27;;;;;;;19.46;72.00;100028.11;1470324;88;21332;-93
2022/06/30 03:22:28;;;;;;;13.00;5.13;;;;;;;19.46;72.51;100028.11;1468160;88;21369;-92
2022/06/30 03:24:55;;;;;;;14.00;6.13;;;;;;;19.46;72.58;100036.16;1482341;88;21384;-92
2022/06/30 03:27:22;;;;;;;8.40;4.97;;;;;;;19.45;72.61;100043.89;1484716;88;21369;-91
2022/06/30 03:29:49;;;;;;;10.27;4.83;;;;;;;19.50;72.54;100041.39;1476657;88;21464;-91
2022/06/30 03:32:17;;;;;;;8.70;5.23;;;;;;;19.57;72.81;100044.34;1455274;86;22711;-91
2022/06/30 03:34:44;;;;;;;13.07;5.03;;;;;;;19.63;72.71;100045.34;1459109;89;21457;-91
2022/06/30 03:37:11;;;;;;;10.67;5.50;;;;;;;19.73;72.55;100052.42;1502270;87;21367;-90
2022/06/30 03:39:39;;;;;;;14.13;5.20;;;;;;;19.78;72.62;100049.91;1493690;87;21360;-92
2022/06/30 03:42:07;;;;;;;9.53;4.70;;;;;;;19.81;72.45;100047.31;1506052;86;21331;-96
2022/06/30 03:44:35;;;;;;;13.70;5.60;;;;;;;19.88;71.92;100047.27;1504668;86;21418;-92
2022/06/30 03:47:03;;;;;;;10.87;4.47;;;;;;;19.91;71.46;100056.22;1501597;86;21396;-93
2022/06/30 03:49:31;;;;;;;9.00;4.50;;;;;;;19.96;70.87;100061.77;1504666;86;22239;-93
2022/06/30 03:51:58;;;;;;;10.40;4.22;;;;;;;19.97;70.75;100054.03;1458001;89;21383;-94
2022/06/30 03:54:25;;;;;;;9.47;4.63;;;;;;;20.00;70.73;100060.31;1479801;87;22543;-95
2022/06/30 03:56:53;;;;;;;10.38;5.62;;;;;;;20.03;70.76;100063.91;1470259;87;21360;-94
2022/06/30 03:59:20;;;;;;;10.17;4.60;;;;;;;20.09;70.88;100060.34;1507807;87;21301;-95
2022/06/30 04:01:47;;;;;;;11.83;5.42;;;;;;;20.14;70.57;100055.63;1491404;87;21730;-94
2022/06/30 04:04:14;;;;;;;13.10;5.70;;;;;;;20.21;70.46;100056.42;1477675;86;23614;-94
2022/06/30 04:06:43;;;;;;;11.20;5.03;;;;;;;20.25;69.35;100054.92;1494858;87;22461;-93
2022/06/30 04:09:10;;;;;;;10.13;4.67;;;;;;;20.35;69.23;100057.95;1490693;87;21555;-93
2022/06/30 04:11:38;;;;;;;16.05;5.08;;;;;;;20.43;69.23;100060.36;1484782;87;22285;-94
2022/06/30 04:14:05;;;;;;;17.75;5.50;;;;;;;20.51;69.17;100063.27;1485800;87;22512;-93
2022/06/30 04:16:33;;;;;;;15.95;4.80;;;;;;;20.59;68.74;100064.36;1472722;88;21368;-94
2022/06/30 04:19:02;;;;;;;10.68;4.85;;;;;;;20.67;68.23;100072.66;1465593;87;21538;-95
2022/06/30 04:21:29;;;;;;;11.83;4.93;;;;;;;20.72;67.56;100074.98;1476677;88;21477;-92
2022/06/30 04:23:57;;;;;;;14.65;5.28;;;;;;;20.76;66.92;100075.89;1468450;88;21483;-94
2022/06/30 04:26:24;;;;;;;12.82;4.58;;;;;;;20.87;67.07;100077.84;1491670;87;21367;-92
2022/06/30 04:28:51;;;;;;;9.68;5.10;;;;;;;20.99;66.54;100070.66;1479454;88;21456;-95
2022/06/30 04:34:04;;;;;;;8.38;4.67;;;;;;;21.23;64.99;100080.20;1473418;88;21523;-94
2022/06/30 04:36:31;;;;;;;8.93;4.50;;;;;;;21.31;64.49;100078.03;1476193;88;21412;-93
2022/06/30 04:38:59;;;;;;;21.90;5.55;;;;;;;21.47;64.56;100079.31;1469089;88;21419;-94
2022/06/30 04:41:26;;;;;;;11.48;5.00;;;;;;;21.67;64.54;100072.84;1468006;88;21361;-94
2022/06/30 04:43:56;;;;;;;16.05;5.05;;;;;;;21.81;64.07;100075.64;1496303;86;21279;-93
2022/06/30 04:46:23;;;;;;;13.55;5.58;;;;;;;21.97;63.55;100077.66;1473360;86;21424;-93
2022/06/30 04:48:52;;;;;;;11.70;4.90;;;;;;;22.11;62.98;100074.23;1508086;86;21271;-93
2022/06/30 04:51:20;;;;;;;9.28;4.90;;;;;;;22.22;62.11;100078.03;1466767;88;21515;-94
2022/06/30 04:53:48;;;;;;;6.53;4.35;;;;;;;22.32;62.13;100080.95;1471241;87;21420;-93
2022/06/30 04:56:16;;;;;;;18.25;4.78;;;;;;;22.48;61.97;100084.31;1481009;88;21368;-94
2022/06/30 04:58:44;;;;;;;8.30;4.50;;;;;;;22.61;61.14;100080.55;1474101;88;22359;-93
2022/06/30 05:01:11;;;;;;;12.45;4.62;;;;;;;22.76;60.66;100084.14;1477638;88;21310;-94
2022/06/30 05:03:39;;;;;;;13.25;5.40;;;;;;;22.93;59.90;100077.47;1472486;88;21389;-94
2022/06/30 05:06:07;;;;;;;12.95;5.85;;;;;;;23.16;58.53;100078.82;1504613;86;22320;-95
2022/06/30 05:08:36;;;;;;;11.33;4.30;;;;;;;23.16;58.53;100078.82;1472498;87;21441;-94
2022/06/30 05:11:04;;;;;;;16.43;4.50;;;;;;;23.34;57.73;100092.67;1473835;87;21361;-93
2022/06/30 05:13:31;;;;;;;15.20;4.67;;;;;;;23.50;57.41;100094.31;1477232;88;21345;-93
2022/06/30 05:15:59;;;;;;;16.60;4.12;;;;;;;23.62;57.11;100093.22;1468134;88;21412;-93
2022/06/30 05:18:27;;;;;;;19.25;4.97;;;;;;;23.70;56.16;100085.27;1481521;88;22196;-93
2022/06/30 05:21:13;;;;;;;17.48;4.58;;;;;;;23.79;55.73;100089.20;1506536;86;21529;-94
2022/06/30 05:27:07;;;;;;;19.70;4.10;;;;;;;24.00;54.41;100093.11;1504185;86;21419;-93
2022/06/30 05:29:54;;;;;;;10.60;3.70;;;;;;;24.14;54.61;100103.59;1493845;86;21486;-93
2022/06/30 05:32:40;;;;;;;17.32;5.40;;;;;;;24.30;54.09;100100.89;1474042;88;21537;-94
2022/06/30 05:35:26;;;;;;;17.75;4.37;;;;;;;24.48;53.51;100099.03;1467884;88;21455;-94
2022/06/30 05:38:11;;;;;;;13.98;5.15;;;;;;;24.57;52.49;100104.84;1465156;88;22578;-94
2022/06/30 05:40:57;;;;;;;11.20;4.35;;;;;;;24.70;52.57;100099.91;1475438;88;21472;-92
2022/06/30 05:43:43;;;;;;;14.78;4.70;;;;;;;24.83;51.52;100101.96;1470931;88;21382;-93
2022/06/30 05:46:28;;;;;;;10.90;4.35;;;;;;;24.95;51.22;100112.17;1473305;88;21552;-93
2022/06/30 05:49:14;;;;;;;15.88;3.87;;;;;;;25.11;51.25;100108.57;1476734;88;21771;-93
2022/06/30 05:52:00;;;;;;;8.68;4.42;;;;;;;25.25;51.16;100120.42;1473260;88;21421;-93
2022/06/30 05:54:46;;;;;;;7.47;4.37;;;;;;;25.44;51.02;100110.91;1495508;86;21523;-93
2022/06/30 05:57:32;;;;;;;14.87;4.85;;;;;;;25.65;50.65;100115.47;1501258;86;21478;-92
2022/06/30 06:00:20;;;;;;;19.40;5.58;;;;;;;25.83;49.72;100116.22;1501999;86;21476;-93
2022/06/30 06:03:06;;;;;;;12.23;4.22;;;;;;;26.00;49.40;100115.57;1475715;88;21442;-93
2022/06/30 06:05:52;;;;;;;16.32;4.53;;;;;;;26.18;49.12;100114.91;1458422;88;21411;-93
2022/06/30 06:08:38;;;;;;;23.18;4.75;;;;;;;26.19;48.54;100119.28;1470357;88;22337;-89
2022/06/30 06:11:25;;;;;;;15.93;4.55;;;;;;;26.27;47.50;100122.88;1473018;88;21435;-89
2022/06/30 06:14:11;;;;;;;20.32;4.47;;;;;;;26.34;47.94;100125.63;1500064;85;22863;-94
2022/06/30 06:16:57;;;;;;;16.82;4.78;;;;;;;26.37;47.16;100124.30;1502554;86;21506;-92
2022/06/30 06:19:43;;;;;;;6.62;4.22;;;;;;;26.45;47.59;100127.89;1491818;86;22365;-94
2022/06/30 06:22:28;;;;;;;12.37;4.33;;;;;;;26.46;47.13;100128.16;1474675;86;21411;-93
2022/06/30 06:25:15;;;;;;;12.73;4.08;;;;;;;26.57;47.54;100125.56;1495376;86;21538;-94
2022/06/30 06:31:07;;;;;;;8.78;2.90;;;;;;;26.64;46.56;100125.59;1471535;88;22277;-94
2022/06/30 06:33:53;;;;;;;14.80;3.45;;;;;;;26.74;46.78;100124.86;1479623;88;21590;-94
2022/06/30 06:36:39;;;;;;;14.40;4.17;;;;;;;26.85;46.21;100129.28;1469433;88;21338;-94
2022/06/30 06:39:24;;;;;;;13.48;4.20;;;;;;;27.04;46.30;100124.75;1472519;88;21375;-94
2022/06/30 06:42:10;;;;;;;10.03;4.10;;;;;;;27.25;45.96;100127.88;1471423;88;22299;-92
2022/06/30 06:44:55;;;;;;;24.10;5.05;;;;;;;27.43;45.66;100127.95;1472875;88;21361;-92
2022/06/30 06:47:41;;;;;;;11.40;3.75;;;;;;;27.42;45.26;100128.49;1471177;88;21442;-94
2022/06/30 06:50:27;;;;;;;15.72;4.47;;;;;;;27.55;45.53;100121.72;1472884;88;21440;-92
2022/06/30 06:53:13;;;;;;;10.05;3.47;;;;;;;27.64;44.92;100123.38;1473598;87;21436;-94
2022/06/30 06:55:59;;;;;;;13.48;3.45;;;;;;;27.79;44.95;100124.80;1474129;88;21451;-94
2022/06/30 06:58:45;;;;;;;11.48;4.37;;;;;;;28.00;44.67;100124.85;1459855;89;21283;-93
2022/06/30 07:01:31;;;;;;;17.57;3.98;;;;;;;28.09;44.00;100126.75;1469389;88;21479;-94
2022/06/30 07:04:17;;;;;;;7.75;4.58;;;;;;;28.19;44.72;100116.41;1469173;88;21480;-91
2022/06/30 07:07:03;;;;;;;16.45;4.35;;;;;;;28.35;44.71;100121.31;1472512;88;22248;-94
2022/06/30 07:09:50;;;;;;;10.68;3.83;;;;;;;28.40;43.96;100122.68;1458061;88;21524;-95
2022/06/30 07:12:36;;;;;;;8.23;4.25;;;;;;;28.54;44.09;100119.70;1472168;88;21428;-95
2022/06/30 07:15:22;;;;;;;11.55;4.12;;;;;;;28.69;44.05;100124.30;1469023;88;21480;-92
2022/06/30 07:18:08;;;;;;;10.10;4.00;;;;;;;28.82;43.42;100122.09;1467707;88;21627;-94
2022/06/30 07:20:54;;;;;;;4.35;3.15;;;;;;;28.98;43.09;100125.86;1461080;88;22406;-93
2022/06/30 07:23:42;;;;;;;7.95;3.70;;;;;;;29.23;43.31;100130.45;1468178;88;21289;-94
2022/06/30 07:26:28;;;;;;;12.37;3.87;;;;;;;29.47;42.85;100125.70;1477691;88;21304;-94
2022/06/30 07:29:14;;;;;;;13.78;3.45;;;;;;;29.72;42.19;100128.03;1470940;87;21459;-92
2022/06/30 07:32:00;;;;;;;10.25;3.70;;;;;;;29.82;41.48;100119.80;1474014;88;21518;-94
2022/06/30 07:34:45;;;;;;;11.73;3.25;;;;;;;29.78;41.34;100115.98;1480516;88;21526;-94
2022/06/30 07:37:31;;;;;;;10.93;3.87;;;;;;;29.81;41.08;100116.81;1472499;88;21377;-95
2022/06/30 07:40:17;;;;;;;9.30;3.60;;;;;;;29.93;40.66;100114.53;1475284;88;21275;-95
2022/06/30 07:43:03;;;;;;;12.70;3.80;;;;;;;30.12;40.59;100113.28;1477934;88;22449;-94
2022/06/30 07:45:49;;;;;;;6.92;3.50;;;;;;;30.20;39.44;100115.96;1463303;88;22597;-95
2022/06/30 07:48:35;;;;;;;11.50;3.37;;;;;;;30.42;40.09;100119.08;1464042;88;22316;-93
2022/06/30 07:51:22;;;;;;;14.07;4.15;;;;;;;30.65;39.84;100113.95;1469881;88;23315;-95
2022/06/30 07:54:07;;;;;;;6.33;3.20;;;;;;;30.88;39.63;100106.34;1478832;88;21407;-93
2022/06/30 07:56:53;;;;;;;7.62;3.10;;;;;;;31.06;38.54;100112.97;1471970;88;21905;-94
2022/06/30 07:59:40;;;;;;;7.62;3.30;;;;;;;31.21;38.51;100118.79;1475476;88;23218;-94
2022/06/30 08:02:26;;;;;;;6.12;3.55;;;;;;;31.37;38.13;100116.72;1476853;88;22434;-95
2022/06/30 08:05:12;;;;;;;5.00;3.72;;;;;;;31.55;38.07;100117.28;1473039;88;21407;-93
2022/06/30 08:07:59;;;;;;;5.53;3.02;;;;;;;31.74;37.26;100112.38;1472820;88;21526;-94
2022/06/30 08:10:45;;;;;;;8.38;4.10;;;;;;;31.85;36.77;100116.56;1473120;88;21695;-95
2022/06/30 08:13:30;;;;;;;8.50;3.10;;;;;;;32.02;36.78;100108.66;1469656;88;22279;-94
2022/06/30 08:16:16;;;;;;;5.35;3.67;;;;;;;32.13;36.46;100106.02;1471612;88;21415;-95
2022/06/30 08:18:44;;;;;;;14.45;3.80;;;;;;;32.19;35.81;100105.37;1472650;88;21391;-93
2022/06/30 08:21:11;;;;;;;10.58;3.65;;;;;;;32.32;35.47;100105.17;1475506;88;21355;-94
2022/06/30 08:23:40;;;;;;;6.12;3.50;;;;;;;32.48;35.32;100107.91;1477543;88;21416;-94
2022/06/30 08:26:07;;;;;;;9.40;3.45;;;;;;;32.63;33.22;100100.52;1473211;88;21952;-90
2022/06/30 08:28:35;;;;;;;8.80;3.30;;;;;;;32.71;34.51;100106.11;1482475;88;21679;-94
2022/06/30 08:31:03;;;;;;;6.53;3.17;;;;;;;32.74;33.63;100099.21;1469006;88;21369;-92
2022/06/30 08:33:30;;;;;;;7.60;3.80;;;;;;;32.79;31.89;100102.67;1480212;88;21398;-94
2022/06/30 08:35:58;;;;;;;11.68;3.70;;;;;;;32.80;32.81;100096.62;1469915;88;21557;-93
2022/06/30 08:38:25;;;;;;;12.60;3.08;;;;;;;32.81;32.91;100090.85;1474370;88;21282;-94
2022/06/30 08:43:39;;;;;;;20.02;4.22;;;;;;;32.84;31.06;100099.03;1460224;87;22599;-92
2022/06/30 08:46:10;;;;;;;18.55;3.40;;;;;;;32.73;31.98;100087.45;1475739;88;21446;-94
2022/06/30 08:48:38;;;;;;;9.35;3.20;;;;;;;32.89;32.91;100092.64;1465837;88;21577;-94
2022/06/30 08:51:07;;;;;;;7.80;3.17;;;;;;;33.11;32.91;100091.37;1475368;88;21452;-93
2022/06/30 08:53:53;;;;;;;;;;;;;;;33.32;32.32;100090.39;1490682;88;21274;-91
2022/06/30 08:56:21;;;;;;;8.10;3.17;;;;;;;33.56;33.84;100083.86;1478044;88;20779;-95
2022/06/30 08:58:51;;;;;;;7.17;3.65;;;;;;;33.80;32.37;100084.36;1479724;88;21370;-94
2022/06/30 09:01:19;;;;;;;9.60;3.17;;;;;;;33.86;31.20;100083.11;1472618;88;21392;-94
2022/06/30 09:03:46;;;;;;;9.10;2.92;;;;;;;33.91;31.16;100076.70;1473088;88;22257;-94
2022/06/30 09:06:13;;;;;;;6.85;3.12;;;;;;;34.00;31.19;100076.19;1476015;88;22353;-95
2022/06/30 09:08:41;;;;;;;11.28;2.87;;;;;;;34.10;31.30;100076.55;1474789;88;21422;-94
2022/06/30 09:11:08;;;;;;;30.45;3.62;;;;;;;34.14;30.76;100074.78;1482188;88;23314;-96
2022/06/30 09:13:52;;;;;;;8.53;3.02;;;;;;;34.11;29.79;100075.41;1472291;88;21356;-94
2022/06/30 09:16:18;;;;;;;5.37;3.05;;;;;;;33.94;30.32;100078.82;1470294;88;21488;-92
2022/06/30 09:18:46;;;;;;;9.40;3.75;;;;;;;34.05;30.97;100079.41;1471743;88;21355;-94
2022/06/30 09:21:19;;;;;;;8.50;3.25;;;;;;;34.22;30.96;100082.27;1476367;88;21332;-94
2022/06/30 09:23:48;;;;;;;9.25;3.92;;;;;;;34.33;30.94;100081.45;1473553;88;21414;-94
2022/06/30 09:26:22;;;;;;;8.65;3.52;;;;;;;34.57;30.80;100081.09;1459891;88;21614;-95
2022/06/30 09:28:55;;;;;;;6.65;3.02;;;;;;;34.69;30.24;100081.88;1468926;88;21451;-95
2022/06/30 09:31:38;;;;;;;7.10;2.67;;;;;;;34.88;30.88;100081.05;1472127;88;21333;-95
2022/06/30 09:34:18;;;;;;;8.63;3.25;;;;;;;35.03;29.97;100083.35;1475301;88;22442;-94
2022/06/30 09:36:49;;;;;;;6.92;3.30;;;;;;;35.12;29.16;100078.47;1477307;88;21444;-93
2022/06/30 09:39:18;;;;;;;32.45;3.62;;;;;;;35.28;29.73;100078.27;1477620;87;22199;-93
2022/06/30 09:41:47;;;;;;;;;;;;;;;35.32;28.55;100077.85;1476248;88;21406;-96
2022/06/30 09:44:20;;;;;;;15.00;3.60;;;;;;;35.42;28.15;100074.80;1455482;88;20297;-95
2022/06/30 09:47:15;;;;;;;10.63;2.87;;;;;;;35.37;27.74;100074.15;1479324;86;21563;-95
2022/06/30 09:49:44;;;;;;;8.53;3.27;;;;;;;35.47;27.62;100081.50;1487127;87;21383;-95
2022/06/30 09:52:26;;;;;;;13.68;2.85;;;;;;;35.56;27.95;100076.03;1484554;87;21882;-94
2022/06/30 09:55:06;;;;;;;8.00;3.10;;;;;;;35.61;28.16;100075.87;1480642;87;21557;-95
2022/06/30 09:57:40;;;;;;;8.43;2.77;;;;;;;35.59;27.97;100069.06;1479742;88;21414;-94
2022/06/30 10:00:15;;;;;;;12.28;3.08;;;;;;;35.61;27.65;100071.74;1479670;88;21398;-96
2022/06/30 10:02:49;;;;;;;7.03;3.10;;;;;;;35.75;27.97;100072.95;1483211;88;22264;-96
2022/06/30 10:05:20;;;;;;;7.33;2.87;;;;;;;35.97;28.48;100075.30;1471660;88;21303;-93
2022/06/30 10:07:47;;;;;;;8.90;3.05;;;;;;;35.93;27.56;100070.98;1488032;88;21356;-95
2022/06/30 10:10:17;;;;;;;7.40;2.90;;;;;;;36.11;28.49;100070.41;1487458;88;21318;-95
2022/06/30 10:12:45;;;;;;;10.23;2.85;;;;;;;36.16;27.34;100068.86;1476500;88;21370;-95
2022/06/30 10:15:15;;;;;;;6.90;2.77;;;;;;;36.28;27.41;100065.42;1478741;88;21406;-94
2022/06/30 10:17:54;;;;;;;11.93;2.92;;;;;;;36.45;26.56;100062.61;1484015;88;21416;-95
2022/06/30 10:20:22;;;;;;;7.22;3.20;;;;;;;36.57;26.73;100059.19;1484500;88;21582;-94
2022/06/30 10:22:50;;;;;;;8.53;3.67;;;;;;;36.65;25.83;100054.78;1479279;88;21355;-94
2022/06/30 10:25:18;;;;;;;6.53;3.60;;;;;;;36.76;25.86;100044.42;1484044;88;21464;-95
2022/06/30 10:27:49;;;;;;;11.33;2.90;;;;;;;36.96;25.97;100040.66;1483054;88;21479;-94
2022/06/30 10:30:22;;;;;;;9.53;2.95;;;;;;;37.10;25.48;100037.69;1486251;88;21376;-94
2022/06/30 10:33:16;;;;;;;7.08;3.17;;;;;;;37.18;25.76;100039.00;1472424;88;22299;-95
2022/06/30 10:35:58;;;;;;;10.15;3.35;;;;;;;37.33;25.59;100034.03;1481924;87;21405;-94
2022/06/30 10:38:49;;;;;;;6.55;2.83;;;;;;;37.46;25.44;100035.69;1485412;88;21543;-95
2022/06/30 10:41:18;;;;;;;8.68;2.85;;;;;;;37.55;25.25;100032.33;1412800;92;21585;-93
2022/06/30 10:44:09;;;;;;;7.37;2.65;;;;;;;37.49;24.62;100026.76;1458442;88;21750;-93
2022/06/30 10:46:47;;;;;;;5.90;3.30;;;;;;;37.18;23.70;100025.21;1486376;87;21562;-93
2022/06/30 10:49:15;;;;;;;5.50;2.83;;;;;;;37.00;23.38;100031.95;1483618;87;21428;-94
2022/06/30 10:51:42;;;;;;;7.30;3.55;;;;;;;37.05;24.50;100030.41;1494196;88;21325;-93
2022/06/30 10:54:09;;;;;;;59.25;5.62;;;;;;;37.12;24.70;100023.80;1484833;88;21553;-95
2022/06/30 10:56:55;;;;;;;13.98;3.20;;;;;;;37.12;23.85;100024.34;1486042;88;21554;-94
2022/06/30 10:59:39;;;;;;;4.25;2.55;;;;;;;37.22;24.87;100022.58;1483328;88;21326;-94
2022/06/30 11:02:18;;;;;;;10.18;2.95;;;;;;;37.50;24.41;100023.45;1482480;88;21561;-92
2022/06/30 11:04:48;;;;;;;5.22;2.90;;;;;;;37.38;22.07;100021.41;1482844;88;21459;-94
2022/06/30 11:07:24;;;;;;;9.20;3.15;;;;;;;37.17;23.22;100015.30;1486859;88;22227;-94
2022/06/30 11:09:58;;;;;;;9.13;3.02;;;;;;;37.36;23.19;100009.89;1480513;88;21311;-93
2022/06/30 11:12:39;;;;;;;4.58;2.90;;;;;;;37.31;22.56;100008.72;1510550;88;21333;-94
2022/06/30 11:15:06;;;;;;;14.38;4.20;;;;;;;37.53;23.38;100013.91;1478151;88;21398;-93
2022/06/30 11:17:37;;;;;;;8.55;3.05;;;;;;;37.55;23.67;100008.03;1483655;88;21369;-94
2022/06/30 11:20:12;;;;;;;7.67;3.15;;;;;;;37.42;22.77;100007.16;1476812;87;21318;-94
2022/06/30 11:22:41;;;;;;;7.80;2.80;;;;;;;37.35;22.95;100005.50;1483594;88;21406;-93
2022/06/30 11:27:44;;;;;;;10.78;3.37;;;;;;;37.78;23.54;100008.45;1449516;88;21620;-95
2022/06/30 11:30:12;;;;;;;9.30;3.25;;;;;;;37.76;23.81;100006.63;1485823;88;21473;-95
2022/06/30 11:32:39;;;;;;;15.50;3.58;;;;;;;37.82;23.20;99998.36;1485084;88;21495;-93
2022/06/30 11:35:08;;;;;;;6.92;3.10;;;;;;;37.96;23.38;99994.75;1481374;88;21391;-96
2022/06/30 11:37:35;;;;;;;7.80;2.75;;;;;;;38.02;22.51;99986.47;1484036;88;21303;-94
2022/06/30 11:40:17;;;;;;;7.47;3.27;;;;;;;38.12;22.56;99984.66;1491085;85;21354;-95
2022/06/30 11:42:39;;;;;;;10.03;3.30;;;;;;;37.97;22.93;99978.39;1476891;87;21413;-94
2022/06/30 11:45:23;;;;;;;4.58;2.72;;;;;;;38.02;23.08;99976.80;1482437;88;21362;-96
2022/06/30 11:47:56;;;;;;;10.15;4.15;;;;;;;38.21;23.88;99982.33;1495949;86;21257;-93
2022/06/30 11:50:26;;;;;;;12.10;3.67;;;;;;;38.43;22.75;99974.20;1441830;88;22448;-93
2022/06/30 11:52:57;;;;;;;10.23;3.80;;;;;;;38.52;22.20;99974.30;1488795;86;21309;-92
2022/06/30 11:55:29;;;;;;;6.97;3.70;;;;;;;38.61;22.52;99972.79;1505026;85;21385;-89
2022/06/30 11:57:58;;;;;;;11.05;3.58;;;;;;;38.54;21.90;99969.23;1475488;88;21361;-95
2022/06/30 12:00:31;;;;;;;6.95;2.85;;;;;;;38.56;22.18;99962.80;1462289;88;21621;-95
2022/06/30 12:02:58;;;;;;;9.18;3.33;;;;;;;38.76;22.28;99967.15;1439323;88;21406;-95
2022/06/30 12:05:31;;;;;;;13.25;3.60;;;;;;;38.88;22.29;99967.14;1474417;88;21355;-93